createdAt,value
2022-08-17T00:00:52.290Z,18.16
2022-08-17T00:03:02.786Z,17.95
2022-08-17T00:05:08.135Z,17.82
2022-08-17T00:07:13.120Z,17.67
2022-08-17T00:09:18.509Z,17.68
2022-08-17T00:11:33.370Z,17.75
2022-08-17T00:13:41.749Z,17.88
2022-08-17T00:16:00.061Z,18.00
2022-08-17T00:18:04.443Z,18.06
2022-08-17T00:20:33.437Z,18.18
2022-08-17T00:22:36.986Z,18.21
2022-08-17T00:24:44.825Z,18.28
2022-08-17T00:26:47.377Z,18.37
2022-08-17T00:28:51.700Z,18.44
2022-08-17T00:30:56.032Z,18.45
2022-08-17T00:33:14.351Z,18.43
2022-08-17T00:35:23.880Z,18.34
2022-08-17T00:37:28.784Z,18.25
2022-08-17T00:39:57.312Z,18.23
2022-08-17T00:41:59.241Z,18.28
2022-08-17T00:44:05.994Z,18.31
2022-08-17T00:46:26.857Z,18.37
2022-08-17T00:48:31.040Z,18.32
2022-08-17T00:50:33.300Z,18.30
2022-08-17T00:52:56.218Z,18.26
2022-08-17T00:55:24.718Z,18.26
2022-08-17T00:57:53.348Z,18.23
2022-08-17T01:00:16.264Z,18.04
2022-08-17T01:02:42.044Z,18.13
2022-08-17T01:05:02.299Z,18.14
2022-08-17T01:07:19.843Z,18.15
2022-08-17T01:09:29.857Z,18.10
2022-08-17T01:11:37.425Z,18.04
2022-08-17T01:14:09.153Z,18.01
2022-08-17T01:16:29.974Z,17.90
2022-08-17T01:18:33.717Z,17.85
2022-08-17T01:21:03.410Z,17.91
2022-08-17T01:23:07.423Z,17.96
2022-08-17T01:25:16.229Z,18.01
2022-08-17T01:27:20.537Z,17.88
2022-08-17T01:29:49.326Z,17.67
2022-08-17T01:32:08.159Z,17.58
2022-08-17T01:34:16.473Z,17.82
2022-08-17T01:36:19.795Z,17.81
2022-08-17T01:38:27.200Z,17.84
2022-08-17T01:40:46.654Z,17.88
2022-08-17T01:42:59.567Z,17.90
2022-08-17T01:45:24.879Z,17.83
2022-08-17T01:47:37.607Z,17.70
2022-08-17T01:49:49.601Z,17.50
2022-08-17T01:51:57.697Z,17.48
2022-08-17T01:54:10.837Z,17.21
2022-08-17T01:56:16.328Z,17.42
2022-08-17T01:58:24.257Z,17.50
2022-08-17T02:00:59.539Z,17.59
2022-08-17T02:03:02.068Z,17.61
2022-08-17T02:05:09.988Z,17.60
2022-08-17T02:07:26.136Z,17.65
2022-08-17T02:09:34.246Z,17.70
2022-08-17T02:11:40.308Z,17.72
2022-08-17T02:14:05.381Z,17.68
2022-08-17T02:16:19.671Z,17.41
2022-08-17T02:18:45.193Z,17.42
2022-08-17T02:20:54.305Z,17.48
2022-08-17T02:23:00.691Z,17.41
2022-08-17T02:25:19.218Z,17.54
2022-08-17T02:27:21.073Z,17.57
2022-08-17T02:29:28.790Z,17.63
2022-08-17T02:31:31.316Z,17.43
2022-08-17T02:33:56.912Z,17.31
2022-08-17T02:36:27.416Z,17.14
2022-08-17T02:38:41.073Z,17.20
2022-08-17T02:40:47.783Z,17.30
2022-08-17T02:42:51.014Z,17.27
2022-08-17T02:45:15.784Z,17.48
2022-08-17T02:47:20.909Z,17.47
2022-08-17T02:49:24.811Z,17.44
2022-08-17T02:51:28.062Z,17.41
2022-08-17T02:54:39.131Z,17.29
2022-08-17T02:56:32.115Z,17.24
2022-08-17T02:58:58.914Z,17.32
2022-08-17T03:01:01.959Z,17.41
2022-08-17T03:03:06.284Z,17.31
2022-08-17T03:05:12.866Z,17.28
2022-08-17T03:07:16.877Z,17.26
2022-08-17T03:09:27.036Z,17.13
2022-08-17T03:11:30.899Z,17.14
2022-08-17T03:13:32.939Z,17.23
2022-08-17T03:15:35.846Z,17.29
2022-08-17T03:17:46.290Z,17.33
2022-08-17T03:19:51.266Z,17.26
2022-08-17T03:21:55.146Z,17.16
2022-08-17T03:23:57.913Z,17.25
2022-08-17T03:26:02.893Z,17.11
2022-08-17T03:28:06.471Z,17.11
2022-08-17T03:30:15.824Z,17.14
2022-08-17T03:32:17.974Z,17.18
2022-08-17T03:35:01.391Z,17.12
2022-08-17T03:37:46.912Z,17.17
2022-08-17T03:39:59.070Z,17.02
2022-08-17T03:42:31.870Z,17.03
2022-08-17T03:44:41.609Z,17.11
2022-08-17T03:47:01.923Z,17.15
2022-08-17T03:49:25.332Z,17.19
2022-08-17T03:51:56.119Z,17.27
2022-08-17T03:54:18.461Z,17.31
2022-08-17T03:56:40.056Z,17.35
2022-08-17T03:58:51.704Z,17.34
2022-08-17T04:01:05.151Z,17.49
2022-08-17T04:03:08.199Z,17.44
2022-08-17T04:05:11.129Z,17.46
2022-08-17T04:07:14.078Z,17.42
2022-08-17T04:09:17.064Z,17.62
2022-08-17T04:11:22.403Z,17.73
2022-08-17T04:13:37.990Z,17.79
2022-08-17T04:15:59.446Z,17.86
2022-08-17T04:18:11.076Z,17.95
2022-08-17T04:20:29.420Z,18.05
2022-08-17T04:22:34.333Z,18.11
2022-08-17T04:24:39.542Z,18.17
2022-08-17T04:26:53.117Z,18.40
2022-08-17T04:28:58.729Z,18.49
2022-08-17T04:31:25.743Z,18.61
2022-08-17T04:33:30.115Z,18.70
2022-08-17T04:35:39.847Z,18.81
2022-08-17T04:37:42.767Z,18.87
2022-08-17T04:40:33.513Z,18.95
2022-08-17T04:42:41.568Z,19.13
2022-08-17T04:44:59.545Z,19.43
2022-08-17T04:47:04.785Z,19.63
2022-08-17T04:49:11.025Z,19.84
2022-08-17T04:51:26.535Z,19.99
2022-08-17T04:53:28.472Z,20.44
2022-08-17T04:55:30.566Z,20.67
2022-08-17T04:57:40.576Z,20.78
2022-08-17T04:59:54.174Z,20.93
2022-08-17T05:01:56.140Z,21.02
2022-08-17T05:04:02.387Z,20.87
2022-08-17T05:06:36.026Z,20.98
2022-08-17T05:08:37.978Z,21.12
2022-08-17T05:10:45.567Z,21.40
2022-08-17T05:12:47.842Z,21.31
2022-08-17T05:14:49.898Z,21.82
2022-08-17T05:16:53.821Z,21.57
2022-08-17T05:18:56.830Z,22.18
2022-08-17T05:21:00.950Z,22.61
2022-08-17T05:23:07.866Z,22.30
2022-08-17T05:25:09.990Z,21.94
2022-08-17T05:27:19.031Z,22.45
2022-08-17T05:29:21.276Z,22.17
2022-08-17T05:31:38.716Z,22.65
2022-08-17T05:33:56.985Z,22.39
2022-08-17T05:36:02.241Z,23.05
2022-08-17T05:38:09.201Z,22.60
2022-08-17T05:40:11.668Z,22.83
2022-08-17T05:42:19.250Z,22.91
2022-08-17T05:44:26.899Z,23.32
2022-08-17T05:46:41.963Z,22.83
2022-08-17T05:48:56.354Z,23.15
2022-08-17T05:51:59.612Z,22.83
2022-08-17T05:54:42.023Z,23.28
2022-08-17T05:56:52.270Z,23.78
2022-08-17T05:59:00.957Z,23.21
2022-08-17T06:01:17.259Z,23.31
2022-08-17T06:03:57.685Z,23.01
2022-08-17T06:06:31.105Z,23.52
2022-08-17T06:09:03.476Z,23.30
2022-08-17T06:11:27.335Z,23.90
2022-08-17T06:13:55.830Z,24.49
2022-08-17T06:16:02.815Z,24.57
2022-08-17T06:18:19.012Z,23.73
2022-08-17T06:20:21.367Z,23.88
2022-08-17T06:22:52.830Z,24.26
2022-08-17T06:25:02.772Z,23.48
2022-08-17T06:27:12.419Z,23.11
2022-08-17T06:29:39.779Z,22.99
2022-08-17T06:31:42.524Z,23.43
2022-08-17T06:33:58.783Z,23.12
2022-08-17T06:36:35.554Z,24.25
2022-08-17T06:43:02.173Z,24.56
2022-08-17T06:44:51.729Z,23.73
2022-08-17T06:47:04.292Z,23.68
2022-08-17T06:49:22.222Z,23.90
2022-08-17T06:52:05.606Z,23.88
2022-08-17T06:54:46.136Z,24.03
2022-08-17T06:56:57.607Z,23.69
2022-08-17T06:59:03.175Z,23.74
2022-08-17T07:01:21.394Z,24.25
2022-08-17T07:03:54.646Z,24.52
2022-08-17T07:06:18.633Z,24.62
2022-08-17T07:08:38.208Z,25.10
2022-08-17T07:10:47.320Z,26.23
2022-08-17T07:13:03.489Z,25.62
2022-08-17T07:15:16.692Z,25.04
2022-08-17T07:17:21.895Z,25.03
2022-08-17T07:19:50.455Z,24.59
2022-08-17T07:22:18.258Z,24.72
2022-08-17T07:24:37.483Z,24.85
2022-08-17T07:26:40.444Z,25.85
2022-08-17T07:28:45.025Z,26.08
2022-08-17T07:30:51.614Z,25.34
2022-08-17T07:33:02.588Z,25.21
2022-08-17T07:35:37.559Z,25.27
2022-08-17T07:38:24.129Z,25.26
2022-08-17T07:40:35.516Z,25.54
2022-08-17T07:42:44.918Z,25.21
2022-08-17T07:44:54.394Z,25.70
2022-08-17T07:47:19.938Z,25.81
2022-08-17T07:49:24.170Z,25.43
2022-08-17T07:51:48.919Z,25.63
2022-08-17T07:53:51.836Z,25.74
2022-08-17T07:55:54.844Z,25.53
2022-08-17T07:58:00.301Z,25.93
2022-08-17T08:00:02.274Z,25.55
2022-08-17T08:02:17.274Z,25.34
2022-08-17T08:05:02.068Z,26.32
2022-08-17T08:07:08.789Z,27.18
2022-08-17T08:09:32.858Z,26.78
2022-08-17T08:11:44.354Z,27.23
2022-08-17T08:14:19.048Z,26.18
2022-08-17T08:17:00.220Z,25.95
2022-08-17T08:19:21.110Z,25.78
2022-08-17T08:21:37.244Z,25.75
2022-08-17T08:24:30.797Z,26.39
2022-08-17T08:27:12.620Z,26.27
2022-08-17T08:29:38.218Z,26.40
2022-08-17T08:32:11.087Z,26.78
2022-08-17T08:35:02.905Z,26.92
2022-08-17T08:37:42.975Z,27.35
2022-08-17T08:40:23.857Z,26.09
2022-08-17T08:43:12.879Z,26.85
2022-08-17T08:45:52.549Z,27.09
2022-08-17T08:48:46.063Z,27.13
2022-08-17T08:51:00.278Z,26.85
2022-08-17T08:53:43.019Z,26.96
2022-08-17T08:56:19.074Z,26.82
2022-08-17T08:58:59.625Z,26.04
2022-08-17T09:01:16.937Z,25.65
2022-08-17T09:03:53.124Z,25.63
2022-08-17T09:06:32.457Z,25.70
2022-08-17T09:09:00.729Z,25.89
2022-08-17T09:11:11.056Z,25.94
2022-08-17T09:13:54.265Z,26.49
2022-08-17T09:16:36.330Z,26.31
2022-08-17T09:19:04.774Z,26.63
2022-08-17T09:21:52.819Z,26.36
2022-08-17T09:24:13.002Z,25.92
2022-08-17T09:26:44.383Z,25.45
2022-08-17T09:29:01.761Z,26.00
2022-08-17T09:31:24.293Z,25.53
2022-08-17T09:33:53.997Z,25.25
2022-08-17T09:36:04.189Z,25.03
2022-08-17T09:38:28.022Z,25.25
2022-08-17T09:40:43.538Z,25.18
2022-08-17T09:42:51.558Z,25.04
2022-08-17T09:45:08.823Z,25.70
2022-08-17T09:47:46.873Z,26.31
2022-08-17T09:49:56.683Z,26.22
2022-08-17T09:52:24.857Z,26.60
2022-08-17T09:54:40.016Z,26.54
2022-08-17T09:57:31.484Z,26.57
2022-08-17T09:59:53.956Z,27.25
2022-08-17T10:02:18.913Z,27.63
2022-08-17T10:04:58.324Z,26.87
2022-08-17T10:07:34.212Z,26.53
2022-08-17T10:09:50.284Z,26.96
2022-08-17T10:12:18.037Z,27.57
2022-08-17T10:15:07.903Z,28.28
2022-08-17T10:17:36.609Z,27.80
2022-08-17T10:19:55.341Z,27.74
2022-08-17T10:22:34.617Z,27.93
2022-08-17T10:25:22.732Z,28.23
2022-08-17T10:27:52.590Z,27.28
2022-08-17T10:30:21.880Z,27.48
2022-08-17T10:33:04.634Z,27.21
2022-08-17T10:35:43.841Z,27.90
2022-08-17T10:37:59.463Z,26.79
2022-08-17T10:40:31.305Z,26.55
2022-08-17T10:42:59.387Z,26.31
2022-08-17T10:45:15.790Z,26.65
2022-08-17T10:47:19.655Z,26.63
2022-08-17T10:49:29.579Z,27.03
2022-08-17T10:51:42.202Z,26.86
2022-08-17T10:53:58.467Z,27.38
2022-08-17T10:56:12.788Z,27.35
2022-08-17T10:58:22.209Z,28.10
2022-08-17T11:00:40.430Z,27.77
2022-08-17T11:03:02.208Z,27.39
2022-08-17T11:05:28.925Z,26.88
2022-08-17T11:08:09.021Z,26.44
2022-08-17T11:11:02.332Z,26.17
2022-08-17T11:16:59.181Z,25.96
2022-08-17T11:19:36.779Z,25.86
2022-08-17T11:22:17.937Z,26.22
2022-08-17T11:24:51.628Z,26.49
2022-08-17T11:27:33.733Z,26.47
2022-08-17T11:30:01.816Z,26.65
2022-08-17T11:32:28.494Z,26.97
2022-08-17T11:34:33.680Z,26.82
2022-08-17T11:36:45.733Z,26.61
2022-08-17T11:39:00.485Z,26.82
2022-08-17T11:41:45.337Z,26.94
2022-08-17T11:43:56.629Z,27.24
2022-08-17T11:46:25.805Z,27.02
2022-08-17T11:49:15.512Z,26.93
2022-08-17T11:51:34.822Z,26.95
2022-08-17T11:53:37.925Z,26.92
2022-08-17T11:55:44.877Z,26.88
2022-08-17T11:58:28.259Z,27.42
2022-08-17T12:00:47.412Z,27.55
2022-08-17T12:03:12.368Z,27.56
2022-08-17T12:05:41.260Z,27.79
2022-08-17T12:08:05.769Z,27.49
2022-08-17T12:10:34.558Z,27.03
2022-08-17T12:12:44.282Z,27.16
2022-08-17T12:15:10.096Z,27.00
2022-08-17T12:17:40.658Z,27.13
2022-08-17T12:19:53.330Z,27.28
2022-08-17T12:22:16.754Z,27.24
2022-08-17T12:24:31.560Z,27.53
2022-08-17T12:26:44.353Z,27.63
2022-08-17T12:28:49.366Z,27.64
2022-08-17T12:30:53.271Z,27.32
2022-08-17T12:33:25.411Z,27.47
2022-08-17T12:35:35.539Z,27.36
2022-08-17T12:37:47.427Z,27.61
2022-08-17T12:40:42.232Z,27.57
2022-08-17T12:43:06.882Z,27.85
2022-08-17T12:46:13.347Z,27.00
2022-08-17T12:48:24.464Z,27.21
2022-08-17T12:50:30.243Z,27.17
2022-08-17T12:52:33.631Z,27.31
2022-08-17T12:54:40.474Z,27.24
2022-08-17T12:56:46.531Z,26.89
2022-08-17T12:59:02.485Z,26.81
2022-08-17T13:01:18.022Z,27.16
2022-08-17T13:03:26.715Z,27.00
2022-08-17T13:05:37.133Z,26.86
2022-08-17T13:07:44.835Z,26.91
2022-08-17T13:09:51.784Z,27.06
2022-08-17T13:11:58.812Z,27.30
2022-08-17T13:14:10.470Z,27.20
2022-08-17T13:16:15.318Z,27.33
2022-08-17T13:18:39.924Z,27.81
2022-08-17T13:20:59.590Z,27.32
2022-08-17T13:23:21.027Z,27.15
2022-08-17T13:25:25.039Z,27.42
2022-08-17T13:27:36.000Z,27.58
2022-08-17T13:30:07.764Z,27.46
2022-08-17T13:32:20.382Z,27.79
2022-08-17T13:34:27.411Z,28.14
2022-08-17T13:36:36.992Z,27.38
2022-08-17T13:38:49.925Z,27.31
2022-08-17T13:40:59.023Z,27.81
2022-08-17T13:43:03.551Z,27.69
2022-08-17T13:45:35.389Z,27.98
2022-08-17T13:47:44.868Z,27.68
2022-08-17T13:49:55.651Z,27.60
2022-08-17T13:51:58.694Z,27.41
2022-08-17T13:54:07.368Z,27.15
2022-08-17T13:56:47.075Z,27.12
2022-08-17T13:59:15.441Z,26.94
2022-08-17T14:01:37.171Z,26.91
2022-08-17T14:03:39.155Z,26.89
2022-08-17T14:05:54.367Z,26.80
2022-08-17T14:08:06.872Z,26.88
2022-08-17T14:10:18.646Z,26.98
2022-08-17T14:12:25.291Z,27.16
2022-08-17T14:14:36.895Z,27.46
2022-08-17T14:16:41.921Z,27.36
2022-08-17T14:18:57.478Z,27.35
2022-08-17T14:21:10.401Z,27.33
2022-08-17T14:23:13.663Z,27.58
2022-08-17T14:25:28.775Z,27.68
2022-08-17T14:27:41.806Z,27.73
2022-08-17T14:29:55.940Z,27.77
2022-08-17T14:32:13.395Z,27.95
2022-08-17T14:34:24.180Z,27.56
2022-08-17T14:36:26.464Z,27.38
2022-08-17T14:38:30.493Z,27.26
2022-08-17T14:40:38.080Z,27.06
2022-08-17T14:42:43.107Z,26.98
2022-08-17T14:44:55.314Z,26.88
2022-08-17T14:47:16.165Z,26.81
2022-08-17T14:49:26.576Z,26.88
2022-08-17T14:51:30.157Z,26.89
2022-08-17T14:53:46.158Z,26.81
2022-08-17T14:55:51.421Z,26.74
2022-08-17T14:58:01.703Z,26.87
2022-08-17T15:00:05.098Z,26.77
2022-08-17T15:02:11.148Z,26.66
2022-08-17T15:04:23.232Z,26.67
2022-08-17T15:07:03.992Z,26.64
2022-08-17T15:09:10.556Z,26.69
2022-08-17T15:11:37.242Z,26.72
2022-08-17T15:13:53.620Z,26.78
2022-08-17T15:16:02.693Z,26.73
2022-08-17T15:18:08.710Z,26.56
2022-08-17T15:20:15.199Z,26.56
2022-08-17T15:22:27.399Z,26.51
2022-08-17T15:24:46.250Z,26.46
2022-08-17T15:26:53.327Z,26.40
2022-08-17T15:29:01.415Z,26.40
2022-08-17T15:31:07.001Z,26.41
2022-08-17T15:33:18.142Z,26.28
2022-08-17T15:35:30.117Z,26.29
2022-08-17T15:37:36.579Z,26.19
2022-08-17T15:39:56.432Z,26.15
2022-08-17T15:42:04.816Z,26.20
2022-08-17T15:44:08.762Z,26.19
2022-08-17T15:46:20.780Z,26.10
2022-08-17T15:48:42.441Z,26.06
2022-08-17T15:50:45.636Z,25.98
2022-08-17T15:53:05.140Z,25.99
2022-08-17T15:55:18.691Z,25.82
2022-08-17T15:57:41.891Z,25.70
2022-08-17T15:59:45.080Z,25.61
2022-08-17T16:03:15.225Z,25.43
2022-08-17T16:04:26.611Z,25.36
2022-08-17T16:06:36.257Z,25.36
2022-08-17T16:08:43.984Z,25.32
2022-08-17T16:10:48.724Z,25.28
2022-08-17T16:13:00.611Z,25.25
2022-08-17T16:15:09.304Z,25.24
2022-08-17T16:17:39.730Z,25.22
2022-08-17T16:20:07.403Z,25.24
2022-08-17T16:22:42.490Z,25.26
2022-08-17T16:25:02.219Z,25.32
2022-08-17T16:27:12.588Z,25.27
2022-08-17T16:29:25.188Z,25.28
2022-08-17T16:31:29.611Z,25.40
2022-08-17T16:34:15.563Z,25.49
2022-08-17T16:36:17.358Z,25.63
2022-08-17T16:38:19.574Z,25.66
2022-08-17T16:40:26.943Z,25.69
2022-08-17T16:42:39.875Z,25.77
2022-08-17T16:44:52.818Z,25.71
2022-08-17T16:46:58.682Z,25.84
2022-08-17T16:49:04.090Z,25.79
2022-08-17T16:51:27.697Z,25.39
2022-08-17T16:53:33.272Z,25.40
2022-08-17T16:55:40.041Z,25.53
2022-08-17T16:57:50.330Z,25.33
2022-08-17T17:00:17.566Z,25.39
2022-08-17T17:02:37.044Z,25.05
2022-08-17T17:05:01.360Z,25.10
2022-08-17T17:07:47.994Z,24.90
2022-08-17T17:09:57.382Z,25.09
2022-08-17T17:12:09.880Z,25.22
2022-08-17T17:14:29.790Z,25.11
2022-08-17T17:16:54.759Z,25.13
2022-08-17T17:19:36.661Z,25.14
2022-08-17T17:21:49.464Z,25.09
2022-08-17T17:24:17.007Z,25.13
2022-08-17T17:26:39.684Z,25.10
2022-08-17T17:29:06.641Z,25.08
2022-08-17T17:31:18.611Z,25.05
2022-08-17T17:34:05.148Z,25.05
2022-08-17T17:36:27.240Z,24.96
2022-08-17T17:38:48.216Z,24.97
2022-08-17T17:40:54.017Z,24.89
2022-08-17T17:43:39.663Z,24.84
2022-08-17T17:45:59.873Z,24.79
2022-08-17T17:48:41.588Z,24.69
2022-08-17T17:52:06.537Z,24.67
2022-08-17T17:54:34.275Z,24.63
2022-08-17T17:56:46.392Z,24.56
2022-08-17T17:58:53.916Z,24.45
2022-08-17T18:01:14.591Z,24.37
2022-08-17T18:04:03.501Z,24.33
2022-08-17T18:06:47.465Z,24.26
2022-08-17T18:09:03.015Z,24.18
2022-08-17T18:11:26.373Z,24.06
2022-08-17T18:14:15.015Z,23.98
2022-08-17T18:17:06.855Z,24.00
2022-08-17T18:19:28.206Z,23.87
2022-08-17T18:21:44.611Z,23.74
2022-08-17T18:23:58.081Z,23.63
2022-08-17T18:26:06.916Z,23.53
2022-08-17T18:28:09.811Z,23.50
2022-08-17T18:30:30.081Z,23.40
2022-08-17T18:32:42.752Z,23.42
2022-08-17T18:34:56.004Z,23.36
2022-08-17T18:36:57.986Z,23.36
2022-08-17T18:39:18.359Z,23.26
2022-08-17T18:41:24.722Z,23.30
2022-08-17T18:43:52.659Z,23.29
2022-08-17T18:45:57.749Z,23.26
2022-08-17T18:48:25.629Z,23.22
2022-08-17T18:50:45.887Z,23.15
2022-08-17T18:52:48.992Z,23.07
2022-08-17T18:55:21.298Z,23.11
2022-08-17T18:57:33.046Z,22.99
2022-08-17T18:59:48.519Z,22.99
2022-08-17T19:02:24.934Z,22.91
2022-08-17T19:05:00.000Z,22.83
2022-08-17T19:07:12.862Z,22.79
2022-08-17T19:09:38.750Z,22.74
2022-08-17T19:11:58.393Z,22.63
2022-08-17T19:14:18.358Z,22.45
2022-08-17T19:16:49.311Z,22.53
2022-08-17T19:18:59.123Z,22.45
2022-08-17T19:21:38.925Z,22.42
2022-08-17T19:23:54.593Z,22.43
2022-08-17T19:26:01.950Z,22.33
2022-08-17T19:28:22.575Z,22.38
2022-08-17T19:30:26.305Z,22.31
2022-08-17T19:32:35.663Z,22.37
2022-08-17T19:34:52.605Z,22.33
2022-08-17T19:37:03.069Z,22.32
2022-08-17T19:39:55.797Z,22.30
2022-08-17T19:42:33.155Z,22.17
2022-08-17T19:45:09.250Z,22.20
2022-08-17T19:48:04.534Z,21.98
2022-08-17T19:50:23.780Z,22.06
2022-08-17T19:52:53.178Z,21.93
2022-08-17T19:55:20.767Z,21.90
2022-08-17T19:57:49.541Z,21.96
2022-08-17T20:00:13.186Z,21.99
2022-08-17T20:02:45.567Z,22.00
2022-08-17T20:04:51.211Z,21.90
2022-08-17T20:07:06.409Z,21.84
2022-08-17T20:09:44.808Z,21.81
2022-08-17T20:12:05.268Z,21.78
2022-08-17T20:14:53.417Z,21.75
2022-08-17T20:17:14.433Z,21.57
2022-08-17T20:19:48.164Z,21.56
2022-08-17T20:21:58.303Z,21.52
2022-08-17T20:24:06.093Z,21.56
2022-08-17T20:26:35.562Z,21.24
2022-08-17T20:29:40.359Z,21.36
2022-08-17T20:31:51.678Z,21.35
2022-08-17T20:33:53.926Z,21.16
2022-08-17T20:36:26.086Z,21.03
2022-08-17T20:38:44.892Z,20.80
2022-08-17T20:40:56.830Z,20.87
2022-08-17T20:43:19.558Z,21.12
2022-08-17T20:45:23.624Z,21.20
2022-08-17T20:47:27.595Z,21.13
2022-08-17T20:50:00.399Z,20.98
2022-08-17T20:52:16.864Z,20.78
2022-08-17T20:54:40.633Z,20.61
2022-08-17T20:56:47.535Z,20.43
2022-08-17T20:58:49.589Z,20.32
2022-08-17T21:00:56.583Z,20.29
2022-08-17T21:03:39.959Z,20.16
2022-08-17T21:06:03.227Z,20.20
2022-08-17T21:13:57.731Z,19.99
2022-08-17T21:16:27.614Z,19.97
2022-08-17T21:18:39.103Z,20.00
2022-08-17T21:21:00.620Z,20.10
2022-08-17T21:23:08.511Z,20.14
2022-08-17T21:25:19.374Z,20.29
2022-08-17T21:27:26.706Z,20.36
2022-08-17T21:29:33.922Z,20.33
2022-08-17T21:32:03.493Z,20.40
2022-08-17T21:34:17.635Z,20.46
2022-08-17T21:36:26.438Z,20.58
2022-08-17T21:38:48.099Z,20.65
2022-08-17T21:40:53.115Z,20.72
2022-08-17T21:42:58.500Z,20.76
2022-08-17T21:45:37.041Z,20.87
2022-08-17T21:47:45.400Z,20.83
2022-08-17T21:49:48.027Z,20.85
2022-08-17T21:51:54.913Z,20.74
2022-08-17T21:54:00.716Z,20.80
2022-08-17T21:56:03.127Z,20.73
2022-08-17T21:58:29.300Z,20.63
2022-08-17T22:00:33.279Z,20.52
2022-08-17T22:02:42.003Z,20.37
2022-08-17T22:05:00.203Z,20.44
2022-08-17T22:07:06.892Z,20.49
2022-08-17T22:09:17.058Z,20.37
2022-08-17T22:11:19.970Z,20.39
2022-08-17T22:13:24.427Z,20.25
2022-08-17T22:15:31.618Z,20.21
2022-08-17T22:17:38.482Z,20.12
2022-08-17T22:19:44.311Z,20.26
2022-08-17T22:21:47.265Z,20.16
2022-08-17T22:24:16.171Z,20.08
2022-08-17T22:26:20.353Z,20.06
2022-08-17T22:28:43.060Z,20.18
2022-08-17T22:31:14.440Z,20.28
2022-08-17T22:33:37.417Z,20.19
2022-08-17T22:35:43.460Z,20.19
2022-08-17T22:37:46.043Z,20.18
2022-08-17T22:39:57.814Z,20.13
2022-08-17T22:42:01.066Z,20.16
2022-08-17T22:44:23.347Z,20.11
2022-08-17T22:46:26.349Z,20.10
2022-08-17T22:48:31.365Z,20.11
2022-08-17T22:50:35.368Z,20.03
2022-08-17T22:52:57.138Z,20.03
2022-08-17T22:55:24.794Z,19.97
2022-08-17T22:57:45.683Z,20.03
2022-08-17T22:59:52.482Z,20.00
2022-08-17T23:02:18.138Z,20.03
2022-08-17T23:04:36.080Z,19.97
2022-08-17T23:06:42.440Z,19.89
2022-08-17T23:08:54.725Z,19.90
2022-08-17T23:10:57.098Z,19.95
2022-08-17T23:13:00.609Z,19.93
2022-08-17T23:15:03.850Z,19.86
2022-08-17T23:17:06.704Z,19.79
2022-08-17T23:19:10.585Z,19.74
2022-08-17T23:21:13.499Z,19.74
2022-08-17T23:23:23.969Z,19.71
2022-08-17T23:25:29.267Z,19.70
2022-08-17T23:27:31.863Z,19.67
2022-08-17T23:29:35.157Z,19.61
2022-08-17T23:31:38.874Z,19.51
2022-08-17T23:33:42.697Z,19.62
2022-08-17T23:35:44.769Z,19.55
2022-08-17T23:37:46.668Z,19.55
2022-08-17T23:39:48.572Z,19.42
2022-08-17T23:41:53.676Z,19.52
2022-08-17T23:46:17.726Z,19.51
2022-08-17T23:48:32.454Z,19.45
2022-08-17T23:50:39.086Z,19.45
2022-08-17T23:52:43.663Z,19.41
2022-08-17T23:54:47.644Z,19.42
2022-08-17T23:56:50.657Z,19.47
2022-08-17T23:58:55.315Z,19.48
